createdAt,value
2023-01-07T00:02:21.522Z,26.40
2023-01-07T00:07:26.872Z,32.78
2023-01-07T00:12:31.185Z,31.50
2023-01-07T00:17:34.831Z,39.95
2023-01-07T00:22:40.562Z,33.58
2023-01-07T00:27:44.184Z,34.22
2023-01-07T00:32:47.833Z,27.70
2023-01-07T00:37:53.769Z,31.92
2023-01-07T00:42:57.381Z,28.63
2023-01-07T00:48:01.788Z,32.75
2023-01-07T00:53:07.693Z,32.22
2023-01-07T00:58:15.115Z,30.13
2023-01-07T01:03:18.802Z,27.52
2023-01-07T01:08:25.055Z,27.48
2023-01-07T01:13:28.692Z,23.13
2023-01-07T01:18:32.301Z,32.55
2023-01-07T01:23:37.717Z,32.20
2023-01-07T01:28:41.366Z,28.47
2023-01-07T01:33:45.024Z,31.63
2023-01-07T01:38:50.333Z,32.05
2023-01-07T01:43:54.008Z,29.87
2023-01-07T01:49:00.533Z,23.85
2023-01-07T01:54:09.256Z,31.48
2023-01-07T01:59:18.467Z,24.77
2023-01-07T02:04:23.967Z,24.10
2023-01-07T02:09:29.233Z,32.10
2023-01-07T02:14:47.119Z,21.87
2023-01-07T02:20:20.755Z,22.40
2023-01-07T02:26:02.281Z,20.63
2023-01-07T02:31:26.034Z,20.05
2023-01-07T02:36:47.082Z,22.08
2023-01-07T02:41:58.375Z,21.08
2023-01-07T02:47:07.813Z,27.75
2023-01-07T02:52:22.187Z,22.67
2023-01-07T02:57:50.159Z,18.23
2023-01-07T03:03:19.851Z,20.20
2023-01-07T03:08:38.842Z,25.70
2023-01-07T03:13:47.226Z,23.58
2023-01-07T03:18:56.617Z,27.60
2023-01-07T03:24:02.861Z,19.10
2023-01-07T03:29:09.100Z,18.15
2023-01-07T03:34:17.366Z,25.83
2023-01-07T03:39:25.469Z,24.27
2023-01-07T03:44:29.297Z,20.40
2023-01-07T03:49:34.867Z,15.70
2023-01-07T03:54:40.173Z,20.27
2023-01-07T03:59:43.856Z,28.43
2023-01-07T04:04:48.276Z,18.17
2023-01-07T04:09:53.629Z,20.08
2023-01-07T04:14:59.171Z,17.80
2023-01-07T04:20:02.984Z,18.50
2023-01-07T04:25:09.765Z,16.00
2023-01-07T04:30:13.883Z,22.58
2023-01-07T04:35:17.646Z,13.30
2023-01-07T04:40:22.915Z,17.70
2023-01-07T04:45:26.573Z,18.10
2023-01-07T04:50:30.232Z,18.08
2023-01-07T04:55:35.551Z,21.45
2023-01-07T05:00:39.217Z,12.63
2023-01-07T05:05:42.826Z,15.32
2023-01-07T05:10:50.076Z,19.08
2023-01-07T05:15:53.727Z,19.38
2023-01-07T05:20:57.400Z,15.50
2023-01-07T05:26:02.704Z,16.05
2023-01-07T05:31:06.605Z,15.30
2023-01-07T05:36:10.403Z,18.30
2023-01-07T05:41:15.697Z,17.52
2023-01-07T05:46:19.689Z,10.37
2023-01-07T05:51:23.326Z,17.95
2023-01-07T05:56:28.621Z,14.80
2023-01-07T06:01:32.422Z,16.33
2023-01-07T06:06:36.206Z,14.45
2023-01-07T06:11:41.510Z,14.13
2023-01-07T06:16:45.179Z,16.43
2023-01-07T06:21:48.839Z,14.18
2023-01-07T06:26:54.109Z,19.15
2023-01-07T06:31:57.724Z,22.37
2023-01-07T06:37:01.553Z,14.43
2023-01-07T06:42:07.014Z,17.60
2023-01-07T06:47:10.638Z,18.77
2023-01-07T06:52:14.278Z,22.95
2023-01-07T06:57:19.631Z,15.93
2023-01-07T07:02:25.389Z,18.13
2023-01-07T07:07:29.076Z,20.52
2023-01-07T07:12:35.512Z,20.50
2023-01-07T07:17:39.152Z,17.13
2023-01-07T07:22:47.173Z,18.77
2023-01-07T07:27:52.443Z,17.73
2023-01-07T07:32:56.088Z,14.07
2023-01-07T07:37:59.698Z,21.60
2023-01-07T07:43:10.169Z,19.52
2023-01-07T07:48:17.176Z,18.92
2023-01-07T07:53:21.077Z,15.60
2023-01-07T07:58:26.363Z,21.60
2023-01-07T08:03:30.022Z,17.47
2023-01-07T08:08:33.963Z,19.02
2023-01-07T08:13:39.283Z,21.70
2023-01-07T08:18:43.637Z,15.47
2023-01-07T08:23:47.261Z,17.48
2023-01-07T08:28:52.708Z,13.85
2023-01-07T08:33:56.345Z,17.93
2023-01-07T08:38:59.988Z,19.40
2023-01-07T08:44:05.564Z,13.73
2023-01-07T08:49:10.029Z,23.10
2023-01-07T08:54:13.694Z,16.77
2023-01-07T08:59:19.048Z,19.45
2023-01-07T09:04:22.694Z,20.77
2023-01-07T09:09:26.348Z,18.30
2023-01-07T09:14:31.992Z,20.80
2023-01-07T09:19:35.668Z,15.15
2023-01-07T09:24:39.271Z,28.63
2023-01-07T09:29:44.558Z,18.05
2023-01-07T09:34:48.301Z,14.13
2023-01-07T09:39:51.932Z,15.07
2023-01-07T09:45:08.963Z,22.30
2023-01-07T09:50:23.247Z,13.98
2023-01-07T09:55:33.077Z,18.52
2023-01-07T10:00:43.427Z,18.08
2023-01-07T10:06:05.236Z,19.48
2023-01-07T10:11:22.033Z,21.75
2023-01-07T10:16:36.449Z,16.17
2023-01-07T10:21:43.891Z,18.95
2023-01-07T10:26:52.127Z,15.50
2023-01-07T10:31:59.274Z,18.83
2023-01-07T10:37:05.489Z,16.40
2023-01-07T10:52:38.585Z,20.85
2023-01-07T10:57:42.636Z,15.88
2023-01-07T11:02:51.660Z,13.63
2023-01-07T11:08:00.313Z,26.48
2023-01-07T11:13:07.854Z,24.45
2023-01-07T11:18:24.339Z,18.25
2023-01-07T11:23:37.892Z,21.90
2023-01-07T11:28:49.301Z,18.17
2023-01-07T11:34:03.816Z,16.75
2023-01-07T11:39:11.216Z,15.15
2023-01-07T11:44:17.027Z,16.30
2023-01-07T11:49:32.106Z,14.05
2023-01-07T11:54:35.747Z,16.52
2023-01-07T11:59:39.468Z,10.38
2023-01-07T12:04:44.783Z,16.83
2023-01-07T12:09:48.492Z,20.67
2023-01-07T12:14:52.197Z,11.90
2023-01-07T12:20:27.989Z,11.50
2023-01-07T12:25:40.902Z,13.30
2023-01-07T12:31:08.094Z,19.23
2023-01-07T12:36:20.960Z,12.77
2023-01-07T12:41:28.807Z,24.20
2023-01-07T12:46:39.653Z,9.45
2023-01-07T12:51:49.795Z,10.98
2023-01-07T12:56:59.004Z,10.80
2023-01-07T13:02:16.841Z,11.15
2023-01-07T13:07:29.474Z,13.82
2023-01-07T13:12:41.106Z,11.15
2023-01-07T13:17:46.307Z,9.30
2023-01-07T13:22:55.919Z,9.63
2023-01-07T13:28:28.078Z,8.52
2023-01-07T13:33:43.628Z,12.70
2023-01-07T13:39:13.814Z,10.40
2023-01-07T13:44:35.277Z,10.40
2023-01-07T13:49:39.281Z,14.35
2023-01-07T13:55:37.971Z,9.55
2023-01-07T14:00:58.437Z,10.15
2023-01-07T14:06:43.031Z,16.25
2023-01-07T14:12:08.883Z,8.07
2023-01-07T14:17:23.706Z,12.57
2023-01-07T14:22:40.794Z,19.10
2023-01-07T14:28:13.769Z,10.82
2023-01-07T14:33:21.970Z,7.70
2023-01-07T14:39:07.356Z,14.07
2023-01-07T14:44:30.786Z,19.77
2023-01-07T14:49:53.361Z,9.18
2023-01-07T14:55:29.279Z,11.35
2023-01-07T15:01:07.064Z,15.95
2023-01-07T15:06:22.501Z,12.50
2023-01-07T15:11:26.988Z,9.60
2023-01-07T15:16:36.310Z,11.90
2023-01-07T15:21:52.006Z,13.00
2023-01-07T15:27:02.901Z,11.20
2023-01-07T15:32:19.474Z,16.00
2023-01-07T15:37:23.232Z,11.77
2023-01-07T15:42:28.435Z,7.65
2023-01-07T15:47:38.877Z,11.65
2023-01-07T15:52:48.542Z,7.53
2023-01-07T15:57:57.456Z,5.80
2023-01-07T16:03:04.026Z,4.30
2023-01-07T16:08:16.047Z,4.22
2023-01-07T16:13:19.686Z,8.80
2023-01-07T16:18:25.219Z,4.32
2023-01-07T16:23:30.164Z,8.27
2023-01-07T16:28:38.906Z,5.82
2023-01-07T16:33:44.897Z,5.80
2023-01-07T16:38:52.404Z,6.70
2023-01-07T16:43:56.733Z,4.68
2023-01-07T16:49:29.937Z,7.35
2023-01-07T16:54:36.333Z,5.30
2023-01-07T16:59:43.696Z,7.68
2023-01-07T17:04:49.204Z,8.88
2023-01-07T17:09:54.553Z,6.10
2023-01-07T17:14:58.267Z,10.30
2023-01-07T17:20:15.829Z,4.45
2023-01-07T17:25:24.668Z,7.25
2023-01-07T17:30:32.810Z,6.70
2023-01-07T17:35:45.425Z,6.93
2023-01-07T17:40:49.473Z,6.20
2023-01-07T17:45:53.128Z,9.32
2023-01-07T17:50:59.103Z,8.40
2023-01-07T17:56:02.983Z,12.18
2023-01-07T18:01:08.964Z,10.00
2023-01-07T18:06:18.061Z,8.25
2023-01-07T18:11:22.919Z,7.88
2023-01-07T18:16:26.655Z,7.38
2023-01-07T18:21:34.506Z,10.05
2023-01-07T18:26:38.123Z,8.65
2023-01-07T18:31:43.417Z,9.50
2023-01-07T18:36:51.372Z,12.57
2023-01-07T18:41:55.210Z,10.05
2023-01-07T18:46:58.881Z,12.82
2023-01-07T18:52:04.176Z,16.30
2023-01-07T18:57:07.951Z,16.87
2023-01-07T19:02:16.541Z,13.48
2023-01-07T19:07:21.872Z,18.15
2023-01-07T19:12:25.478Z,14.27
2023-01-07T19:17:29.176Z,24.48
2023-01-07T19:22:34.486Z,18.50
2023-01-07T19:27:38.118Z,24.37
2023-01-07T19:32:41.787Z,14.10
2023-01-07T19:37:47.126Z,19.38
2023-01-07T19:42:50.800Z,17.87
2023-01-07T19:47:54.459Z,23.48
2023-01-07T19:53:00.149Z,18.30
2023-01-07T19:58:03.789Z,22.20
2023-01-07T20:03:07.490Z,20.73
2023-01-07T20:08:12.873Z,19.77
2023-01-07T20:13:16.525Z,22.63
2023-01-07T20:18:20.158Z,18.58
2023-01-07T20:23:26.730Z,22.02
2023-01-07T20:28:30.693Z,21.10
2023-01-07T20:33:35.087Z,17.17
2023-01-07T20:38:40.729Z,23.50
2023-01-07T20:43:44.941Z,24.15
2023-01-07T20:48:48.800Z,19.42
2023-01-07T20:53:54.332Z,20.42
2023-01-07T20:58:58.433Z,16.70
2023-01-07T21:04:02.070Z,24.73
2023-01-07T21:09:08.170Z,20.67
2023-01-07T21:14:11.774Z,17.33
2023-01-07T21:19:15.760Z,17.27
2023-01-07T21:24:21.134Z,20.85
2023-01-07T21:29:24.777Z,18.27
2023-01-07T21:34:28.426Z,20.05
2023-01-07T21:39:33.775Z,15.35
2023-01-07T21:44:38.157Z,22.90
2023-01-07T21:49:42.009Z,23.42
2023-01-07T21:54:48.031Z,18.50
2023-01-07T21:59:51.643Z,12.02
2023-01-07T22:04:55.255Z,14.07
2023-01-07T22:10:00.544Z,11.60
2023-01-07T22:15:04.312Z,10.50
2023-01-07T22:20:09.294Z,13.40
2023-01-07T22:25:14.589Z,11.90
2023-01-07T22:30:20.459Z,6.37
2023-01-07T22:35:24.611Z,6.57
2023-01-07T22:40:33.225Z,15.40
2023-01-07T22:45:43.135Z,13.07
2023-01-07T22:50:46.799Z,13.10
2023-01-07T22:55:52.210Z,16.52
2023-01-07T23:01:10.939Z,18.17
2023-01-07T23:06:15.960Z,14.43
2023-01-07T23:11:21.292Z,16.70
2023-01-07T23:16:24.963Z,12.87
2023-01-07T23:21:28.650Z,14.05
2023-01-07T23:26:34.916Z,13.90
2023-01-07T23:31:38.710Z,13.30
2023-01-07T23:36:42.403Z,16.35
2023-01-07T23:41:47.748Z,18.55
2023-01-07T23:46:51.770Z,24.43
2023-01-07T23:51:55.391Z,19.02
2023-01-07T23:57:00.722Z,15.40
